LZSLUMBB

Guest
Details From LZSL - SLIAC
To UMBB - Brest
Flight Number -
Tags generated
Created
Modified
Stats Distance 277 nm / 514 km
Max Altitude 33,900 ft / 10,333 m
Waypoints 5
Social Downloads 1
Likes 0
Share VATSIM

Download

Looking for another format? Having issues loading an existing format? Contact us
Advertisement - Login to hide

Notes

Basic altitude profile: - Ascent Rate: 2500ft/min - Ascent Speed: 250kts - Cruise Altitude: 35000ft - Cruise Speed: 420kts - Descent Rate: 1500ft/min - Descent Speed: 250kts Options: - Use NATs: yes - Use PACOTS: yes - Use low airways: yes - Use high airways: yes

Route

LZSL ADOKI UL999 RILAB L999 TOSPO UMBB

ID Type Via Altitude Latitude Longitude Leg Dist Tot Dist Heading (true) Name
O LZSL APT - 0 ft / 0 m 48.63784˚ 19.13411˚ - 0 nm - SLIAC
ADOKI FIX - 33,900 ft / 10,333 m 49.93583˚ 20.64583˚ 97 nm 97 nm 37° / 38° -
RILAB FIX UL999 (AWY-HI) 27,500 ft / 8,382 m 50.76528˚ 21.80333˚ 66 nm 164 nm 41° / 42° -
TOSPO FIX L999 (AWY-LO) 19,500 ft / 5,944 m 52.01639˚ 23.66472˚ 102 nm 267 nm 42° / 44° -
O UMBB APT - 0 ft / 0 m 52.10828˚ 23.89635˚ 10 nm 277 nm 57° / 57° Brest

Altitude Profile

Advertisement - Login to hide

Weather


0- 5 10 15 20 25 30 35+ Temperature / ° C

Clouds and Precipitation
Forecast for 2017-12-18 06:00 UTC. Updated 19 minutes ago

Ground ~20,000 ft ~40,000 ft Winds

LZSL

Details ICAO LZSL (SLD)
Name SLIAC
Region Slovakia
Timezone Europe/Bratislava (UTC+1.0)
Stats Elevation 1,043 ft / 318 m (AMSL)
Location 48.637839° 19.134108°
Runways 1
Magnetic Variation 4.875° E

METAR

LZSL 180530Z 00000KT 0300 R36/0650N FZFG BKN001 M12/M14 Q1021

Decode

TAF

Not found

Departure Runways

ID Width Length Bearing (true) Bearing (mag) Surface Threshold Offset Overrun Length
18 197 ft / 60 m 7,657 ft / 2,334 m 181.94° 177.06° Concrete 0 ft / 0 m 180 ft / 55 m
36 197 ft / 60 m 7,657 ft / 2,334 m 1.93° 357.05° Concrete 0 ft / 0 m 65 ft / 20 m

UMBB

Details ICAO UMBB (BQT)
Name Brest
Region Belarus and Russia (Kaliningrad Oblast)
Timezone Europe/Minsk (UTC+3.0)
Stats Elevation 468 ft / 143 m (AMSL)
Location 52.108283° 23.896352°
Runways 1
Magnetic Variation 6.532° E

METAR

UMBB 180530Z 01003MPS 2800 BR OVC003 M04/M04 Q1023 NOSIG RMK QBB110

Decode

TAF

Not found

Destination Runways

ID Width Length Bearing (true) Bearing (mag) Surface Threshold Offset Overrun Length
11 138 ft / 42 m 8,589 ft / 2,618 m 114.01° 107.48° Asphalt 0 ft / 0 m 0 ft / 0 m
29 138 ft / 42 m 8,589 ft / 2,618 m 294.04° 287.51° Asphalt 0 ft / 0 m 0 ft / 0 m

Approach Navaids

Runway Type Ident Frequency Range Bearing (true) Bearing (mag) Slope Elevation
29 Localiser IBY 110.30 MHz 18 nm / 33 km 294.05° 287.52° - 443 ft / 135 m (AMSL)